Time;durP1;ratioP1;P1;durP2;ratioP2;P2;SDS_P1;SDS_P2;PMS_P1;PMS_P2;Temp;Humidity;BMP_temperature;BMP_pressure;BME280_temperature;BME280_humidity;BME280_pressure;Samples;Min_cycle;Max_cycle;Signal;HPM_P1;HPM_P2
2022/07/29 00:01:29;;;;;;;;;;;22.40;97.20;;;;;;5053473;28;19911;-55
2022/07/29 00:03:54;;;;;;;;;;;22.40;97.60;;;;;;5053767;28;20357;-59
2022/07/29 00:06:20;;;;;;;;;;;22.30;97.90;;;;;;5054093;28;19955;-54
2022/07/29 00:08:46;;;;;;;;;;;22.30;98.20;;;;;;5054615;28;20266;-59
2022/07/29 00:11:11;;;;;;;;;;;22.30;98.60;;;;;;5053604;28;20293;-59
2022/07/29 00:13:37;;;;;;;;;;;22.30;98.80;;;;;;5053778;28;20280;-59
2022/07/29 00:16:03;;;;;;;;;;;22.20;99.00;;;;;;5053485;28;20007;-58
2022/07/29 00:18:28;;;;;;;;;;;22.30;99.30;;;;;;5053839;28;19912;-56
2022/07/29 00:20:54;;;;;;;;;;;22.20;99.40;;;;;;5053397;28;19909;-59
2022/07/29 00:23:19;;;;;;;;;;;22.30;99.60;;;;;;5053512;28;19905;-59
2022/07/29 00:25:45;;;;;;;;;;;22.30;99.70;;;;;;5053367;28;19905;-56
2022/07/29 00:28:10;;;;;;;;;;;22.30;99.80;;;;;;5053521;28;20361;-57
2022/07/29 00:30:36;;;;;;;;;;;22.30;99.90;;;;;;5052345;28;19916;-57
2022/07/29 00:33:01;;;;;;;;;;;22.30;99.90;;;;;;5054103;28;19905;-59
2022/07/29 00:35:45;;;;;;;;;;;22.30;99.90;;;;;;5057450;28;19905;-57
2022/07/29 00:38:14;;;;;;;;;;;22.40;99.90;;;;;;5057659;28;19909;-57
2022/07/29 00:40:40;;;;;;;;;;;22.40;99.90;;;;;;5057230;28;19905;-57
2022/07/29 00:43:06;;;;;;;;;;;22.30;99.90;;;;;;5057376;28;19970;-59
2022/07/29 00:45:32;;;;;;;;;;;22.40;99.90;;;;;;5057680;28;19912;-58
2022/07/29 00:47:57;;;;;;;;;;;22.30;99.90;;;;;;5057346;28;19905;-55
2022/07/29 00:50:23;;;;;;;;;;;22.30;99.90;;;;;;5057221;28;20293;-57
2022/07/29 00:52:50;;;;;;;;;;;22.20;99.90;;;;;;5058814;28;19912;-59
2022/07/29 00:55:15;;;;;;;;;;;22.20;99.90;;;;;;5062354;28;19911;-59
2022/07/29 00:57:42;;;;;;;;;;;22.20;99.90;;;;;;5062164;28;20315;-59
2022/07/29 01:00:09;;;;;;;;;;;22.10;99.90;;;;;;5058851;28;19908;-58
2022/07/29 01:02:34;;;;;;;;;;;22.10;99.90;;;;;;5057663;28;19909;-57
2022/07/29 01:05:02;;;;;;;;;;;22.00;99.90;;;;;;5056973;28;20319;-55
2022/07/29 01:07:28;;;;;;;;;;;22.00;99.90;;;;;;5056867;28;19909;-55
2022/07/29 01:09:54;;;;;;;;;;;21.90;99.90;;;;;;5056968;28;20335;-56
2022/07/29 01:12:25;;;;;;;;;;;21.90;99.90;;;;;;5055204;28;19962;-57
2022/07/29 01:14:51;;;;;;;;;;;21.90;99.90;;;;;;5056606;28;20396;-57
2022/07/29 01:17:20;;;;;;;;;;;21.90;99.90;;;;;;5057026;28;19905;-55
2022/07/29 01:20:06;;;;;;;;;;;21.90;99.90;;;;;;5056862;28;20301;-55
2022/07/29 01:22:38;;;;;;;;;;;21.90;99.90;;;;;;5056861;28;19904;-57
2022/07/29 01:25:04;;;;;;;;;;;21.90;99.90;;;;;;5056640;28;19909;-58
2022/07/29 01:27:39;;;;;;;;;;;21.90;99.90;;;;;;5056677;28;20360;-57
2022/07/29 01:30:05;;;;;;;;;;;21.90;99.90;;;;;;5056959;28;19999;-55
2022/07/29 01:32:35;;;;;;;;;;;21.90;99.90;;;;;;5057431;28;19996;-53
2022/07/29 01:35:14;;;;;;;;;;;22.00;99.90;;;;;;5056460;28;19905;-55
2022/07/29 01:37:45;;;;;;;;;;;22.00;99.90;;;;;;5056249;28;19995;-57
2022/07/29 01:40:21;;;;;;;;;;;21.90;99.90;;;;;;5055988;28;20296;-58
2022/07/29 01:42:52;;;;;;;;;;;22.00;99.90;;;;;;5056143;28;19900;-54
2022/07/29 01:45:31;;;;;;;;;;;22.00;99.90;;;;;;5055140;28;20273;-53
2022/07/29 01:48:18;;;;;;;;;;;21.90;99.90;;;;;;5056430;28;19905;-54
2022/07/29 01:51:04;;;;;;;;;;;21.90;99.90;;;;;;5054726;28;19955;-57
2022/07/29 01:53:38;;;;;;;;;;;21.90;99.90;;;;;;5054739;28;20407;-56
2022/07/29 01:56:06;;;;;;;;;;;21.90;99.90;;;;;;5056412;28;19942;-57
2022/07/29 01:58:32;;;;;;;;;;;21.80;99.90;;;;;;5055746;28;19905;-58
2022/07/29 02:00:59;;;;;;;;;;;21.70;99.90;;;;;;5056051;28;19905;-57
2022/07/29 02:03:25;;;;;;;;;;;21.70;99.90;;;;;;5056372;28;19909;-56
2022/07/29 02:05:52;;;;;;;;;;;21.60;99.90;;;;;;5056010;28;19908;-59
2022/07/29 02:08:19;;;;;;;;;;;21.60;99.90;;;;;;5055928;28;20273;-59
2022/07/29 02:10:45;;;;;;;;;;;21.60;99.90;;;;;;5055439;28;19916;-58
2022/07/29 02:13:12;;;;;;;;;;;21.50;99.90;;;;;;5077832;22;19921;-58
2022/07/29 02:15:39;;;;;;;;;;;21.50;99.90;;;;;;5056142;28;19912;-59
2022/07/29 02:18:06;;;;;;;;;;;21.40;99.90;;;;;;5056224;28;19905;-57
2022/07/29 02:20:32;;;;;;;;;;;21.40;99.90;;;;;;5056927;28;19909;-57
2022/07/29 02:22:58;;;;;;;;;;;21.40;99.90;;;;;;5056981;28;19927;-59
2022/07/29 02:25:24;;;;;;;;;;;21.40;99.90;;;;;;5060370;28;19972;-61
2022/07/29 02:27:50;;;;;;;;;;;21.40;99.90;;;;;;5067211;28;19909;-62
2022/07/29 02:30:16;;;;;;;;;;;21.30;99.90;;;;;;5065343;28;19905;-60
2022/07/29 02:32:42;;;;;;;;;;;21.20;99.90;;;;;;5063705;28;19904;-60
2022/07/29 02:35:09;;;;;;;;;;;21.10;99.90;;;;;;5062308;28;20440;-59
2022/07/29 02:37:35;;;;;;;;;;;21.10;99.90;;;;;;5060847;28;19908;-61
2022/07/29 02:40:01;;;;;;;;;;;21.00;99.90;;;;;;5059952;28;19905;-62
2022/07/29 02:42:28;;;;;;;;;;;21.00;99.90;;;;;;5061204;28;19959;-58
2022/07/29 02:44:53;;;;;;;;;;;21.10;99.90;;;;;;5060856;28;19936;-60
2022/07/29 02:47:25;;;;;;;;;;;21.10;99.90;;;;;;5059613;28;19958;-59
2022/07/29 02:50:01;;;;;;;;;;;21.10;99.90;;;;;;5058226;28;19912;-56
2022/07/29 02:52:30;;;;;;;;;;;21.10;99.90;;;;;;5057764;28;20000;-58
2022/07/29 02:55:11;;;;;;;;;;;21.10;99.90;;;;;;5059186;28;20316;-58
2022/07/29 02:57:41;;;;;;;;;;;21.10;99.90;;;;;;5058972;28;20322;-60
2022/07/29 03:00:08;;;;;;;;;;;21.10;99.90;;;;;;5056729;28;20365;-58
2022/07/29 03:02:37;;;;;;;;;;;21.10;99.90;;;;;;5056971;28;19904;-60
2022/07/29 03:05:04;;;;;;;;;;;21.10;99.90;;;;;;5057516;28;20350;-60
2022/07/29 03:07:30;;;;;;;;;;;21.10;99.90;;;;;;5054693;28;19915;-58
2022/07/29 03:09:56;;;;;;;;;;;21.10;99.90;;;;;;5056670;28;19905;-58
2022/07/29 03:12:22;;;;;;;;;;;21.10;99.90;;;;;;5056043;28;19920;-59
2022/07/29 03:14:48;;;;;;;;;;;21.10;99.90;;;;;;5057505;28;19905;-59
2022/07/29 03:17:14;;;;;;;;;;;21.10;99.90;;;;;;5054843;28;19905;-60
2022/07/29 03:19:40;;;;;;;;;;;21.00;99.90;;;;;;5055802;28;19915;-60
2022/07/29 03:22:06;;;;;;;;;;;21.00;99.90;;;;;;5054375;28;19908;-59
2022/07/29 03:24:33;;;;;;;;;;;21.00;99.90;;;;;;5053304;28;20358;-59
2022/07/29 03:26:59;;;;;;;;;;;21.00;99.90;;;;;;5054494;28;19904;-59
2022/07/29 03:29:25;;;;;;;;;;;21.00;99.90;;;;;;5054583;28;19970;-58
2022/07/29 03:31:50;;;;;;;;;;;21.00;99.90;;;;;;5054554;28;19908;-57
2022/07/29 03:34:16;;;;;;;;;;;20.90;99.90;;;;;;5053077;28;19904;-58
2022/07/29 03:36:41;;;;;;;;;;;20.90;99.90;;;;;;5054873;28;19905;-59
2022/07/29 03:39:07;;;;;;;;;;;20.90;99.90;;;;;;5054352;28;20277;-59
2022/07/29 03:41:33;;;;;;;;;;;20.90;99.90;;;;;;5052778;28;19904;-59
2022/07/29 03:43:59;;;;;;;;;;;21.00;99.90;;;;;;5054226;28;20000;-58
2022/07/29 03:46:26;;;;;;;;;;;20.90;99.90;;;;;;5053004;28;19912;-59
2022/07/29 03:48:56;;;;;;;;;;;20.90;99.90;;;;;;5054156;28;19904;-55
2022/07/29 03:51:21;;;;;;;;;;;20.90;99.90;;;;;;5054031;28;19908;-59
2022/07/29 03:53:46;;;;;;;;;;;20.90;99.90;;;;;;5052976;28;20029;-57
2022/07/29 03:56:15;;;;;;;;;;;21.10;99.90;;;;;;5054360;28;19912;-59
2022/07/29 03:58:41;;;;;;;;;;;21.10;99.90;;;;;;5054455;28;20015;-59
2022/07/29 04:01:06;;;;;;;;;;;21.00;99.90;;;;;;5054213;28;20369;-60
2022/07/29 04:03:32;;;;;;;;;;;21.00;99.90;;;;;;5053998;28;20272;-59
2022/07/29 04:05:58;;;;;;;;;;;20.90;99.90;;;;;;5054659;28;19911;-59
2022/07/29 04:08:23;;;;;;;;;;;20.90;99.90;;;;;;5054290;28;19904;-59
2022/07/29 04:10:49;;;;;;;;;;;20.90;99.90;;;;;;5054410;28;19913;-59
2022/07/29 04:13:15;;;;;;;;;;;20.90;99.90;;;;;;5054759;28;19913;-59
2022/07/29 04:15:40;;;;;;;;;;;20.90;99.90;;;;;;5056033;28;19951;-59
2022/07/29 04:18:06;;;;;;;;;;;20.90;99.90;;;;;;5053964;28;19904;-59
2022/07/29 04:20:31;;;;;;;;;;;20.90;99.90;;;;;;5054418;28;20317;-58
2022/07/29 04:22:57;;;;;;;;;;;20.90;99.90;;;;;;5054066;28;19984;-59
2022/07/29 04:25:22;;;;;;;;;;;21.00;99.90;;;;;;5052304;28;19912;-59
2022/07/29 04:28:00;;;;;;;;;;;21.00;99.90;;;;;;5052752;28;19905;-59
2022/07/29 04:30:26;;;;;;;;;;;21.00;99.90;;;;;;5053858;28;19915;-59
2022/07/29 04:32:51;;;;;;;;;;;21.00;99.90;;;;;;5052595;28;19905;-59
2022/07/29 04:35:17;;;;;;;;;;;21.00;99.90;;;;;;5054301;28;19954;-59
2022/07/29 04:37:43;;;;;;;;;;;21.10;99.90;;;;;;5053052;28;19905;-59
2022/07/29 04:40:08;;;;;;;;;;;21.10;99.90;;;;;;5054135;28;20285;-58
2022/07/29 04:42:34;;;;;;;;;;;21.00;99.90;;;;;;5054571;28;19904;-58
2022/07/29 04:44:59;;;;;;;;;;;20.90;99.90;;;;;;5052291;28;19908;-60
2022/07/29 04:47:25;;;;;;;;;;;20.90;99.90;;;;;;5052091;28;19912;-55
2022/07/29 04:49:50;;;;;;;;;;;20.90;99.90;;;;;;5053479;28;19958;-59
2022/07/29 04:52:16;;;;;;;;;;;20.90;99.90;;;;;;5053325;28;19959;-59
2022/07/29 04:54:41;;;;;;;;;;;20.90;99.90;;;;;;5053324;28;19953;-59
2022/07/29 04:57:07;;;;;;;;;;;20.70;99.90;;;;;;5053335;28;19909;-60
2022/07/29 04:59:32;;;;;;;;;;;20.70;99.90;;;;;;5051955;28;20380;-59
2022/07/29 05:01:57;;;;;;;;;;;20.60;99.90;;;;;;5050580;28;19994;-59
2022/07/29 05:04:23;;;;;;;;;;;20.60;99.90;;;;;;5052429;28;19904;-59
2022/07/29 05:06:48;;;;;;;;;;;20.60;99.90;;;;;;5052209;28;20250;-59
2022/07/29 05:09:14;;;;;;;;;;;20.50;99.90;;;;;;5052087;28;19912;-57
2022/07/29 05:11:39;;;;;;;;;;;20.40;99.90;;;;;;5053199;28;20292;-58
2022/07/29 05:14:05;;;;;;;;;;;20.40;99.90;;;;;;5053362;28;19905;-59
2022/07/29 05:16:30;;;;;;;;;;;20.40;99.90;;;;;;5053579;28;19955;-60
2022/07/29 05:18:56;;;;;;;;;;;20.40;99.90;;;;;;5053423;28;20371;-60
2022/07/29 05:21:21;;;;;;;;;;;20.40;99.90;;;;;;5056813;28;19954;-58
2022/07/29 05:23:47;;;;;;;;;;;20.30;99.90;;;;;;5057133;28;19905;-57
2022/07/29 05:26:12;;;;;;;;;;;20.30;99.90;;;;;;5055743;28;19911;-60
2022/07/29 05:28:38;;;;;;;;;;;20.30;99.90;;;;;;5056572;28;20315;-59
2022/07/29 05:31:03;;;;;;;;;;;20.40;99.90;;;;;;5056612;28;19916;-59
2022/07/29 05:33:29;;;;;;;;;;;20.40;99.90;;;;;;5055137;28;19912;-59
2022/07/29 05:35:54;;;;;;;;;;;20.40;99.90;;;;;;5055523;28;19912;-58
2022/07/29 05:38:20;;;;;;;;;;;20.40;99.90;;;;;;5056957;28;20296;-59
2022/07/29 05:40:45;;;;;;;;;;;20.40;99.90;;;;;;5056677;28;19958;-60
2022/07/29 05:43:10;;;;;;;;;;;20.50;99.90;;;;;;5055697;28;20447;-60
2022/07/29 05:45:38;;;;;;;;;;;20.50;99.90;;;;;;5056886;28;19959;-59
2022/07/29 05:48:03;;;;;;;;;;;20.50;99.90;;;;;;5056999;28;19912;-59
2022/07/29 05:50:29;;;;;;;;;;;20.50;99.90;;;;;;5056923;28;19908;-60
2022/07/29 05:52:54;;;;;;;;;;;20.60;99.90;;;;;;5056304;28;19912;-59
2022/07/29 05:55:20;;;;;;;;;;;20.60;99.90;;;;;;5056368;28;20306;-60
2022/07/29 05:57:45;;;;;;;;;;;20.60;99.90;;;;;;5056532;28;20370;-60
2022/07/29 06:00:11;;;;;;;;;;;20.70;99.90;;;;;;5056098;28;19928;-60
2022/07/29 06:02:36;;;;;;;;;;;20.80;99.90;;;;;;5055640;28;19949;-57
2022/07/29 06:05:02;;;;;;;;;;;20.90;99.90;;;;;;5054512;28;20376;-58
2022/07/29 06:07:27;;;;;;;;;;;20.90;99.90;;;;;;5056583;28;19948;-59
2022/07/29 06:09:53;;;;;;;;;;;21.10;99.90;;;;;;5056319;28;19904;-58
2022/07/29 06:12:19;;;;;;;;;;;21.30;99.90;;;;;;5055504;28;20262;-59
2022/07/29 06:14:45;;;;;;;;;;;21.30;99.90;;;;;;5054850;28;20272;-57
2022/07/29 06:17:11;;;;;;;;;;;21.50;99.90;;;;;;5054408;28;19904;-59
2022/07/29 06:19:37;;;;;;;;;;;21.60;99.90;;;;;;5055511;28;19904;-59
2022/07/29 06:22:03;;;;;;;;;;;21.70;99.90;;;;;;5055488;28;19911;-59
2022/07/29 06:24:28;;;;;;;;;;;21.80;99.90;;;;;;5054560;28;19912;-60
2022/07/29 06:26:54;;;;;;;;;;;21.80;99.90;;;;;;5055748;28;19905;-59
2022/07/29 06:29:19;;;;;;;;;;;21.90;99.90;;;;;;5054540;28;19958;-59
2022/07/29 06:31:45;;;;;;;;;;;22.00;99.90;;;;;;5054525;28;20400;-61
2022/07/29 06:34:10;;;;;;;;;;;22.20;99.90;;;;;;5056810;28;19905;-61
2022/07/29 06:36:36;;;;;;;;;;;22.30;99.90;;;;;;5055896;28;20305;-61
2022/07/29 06:39:08;;;;;;;;;;;22.50;99.90;;;;;;5056058;28;19912;-61
2022/07/29 06:41:33;;;;;;;;;;;22.50;99.90;;;;;;5056685;28;19904;-62
2022/07/29 06:43:59;;;;;;;;;;;22.60;99.90;;;;;;5054150;28;19912;-60
2022/07/29 06:46:24;;;;;;;;;;;22.80;99.90;;;;;;5054938;28;20285;-61
2022/07/29 06:48:50;;;;;;;;;;;23.00;99.90;;;;;;5055576;28;19909;-63
2022/07/29 06:51:16;;;;;;;;;;;23.10;99.90;;;;;;5055346;28;19908;-61
2022/07/29 06:53:42;;;;;;;;;;;23.20;99.90;;;;;;5055072;28;19911;-63
2022/07/29 06:56:08;;;;;;;;;;;23.30;99.90;;;;;;5055295;28;20388;-60
2022/07/29 06:58:34;;;;;;;;;;;23.30;99.90;;;;;;5055202;28;19909;-60
2022/07/29 07:01:01;;;;;;;;;;;23.30;99.90;;;;;;5053540;28;19974;-60
2022/07/29 07:03:27;;;;;;;;;;;23.30;99.90;;;;;;5055102;28;19988;-59
2022/07/29 07:05:53;;;;;;;;;;;23.30;99.90;;;;;;5055020;28;19909;-57
2022/07/29 07:08:19;;;;;;;;;;;23.40;99.80;;;;;;5053866;28;19905;-59
2022/07/29 07:10:45;;;;;;;;;;;23.10;99.90;;;;;;5054922;28;19915;-58
2022/07/29 07:13:10;;;;;;;;;;;23.00;99.90;;;;;;5055828;28;19943;-54
2022/07/29 07:15:36;;;;;;;;;;;23.10;99.90;;;;;;5055702;28;19912;-54
2022/07/29 07:18:02;;;;;;;;;;;23.20;99.90;;;;;;5055412;28;19909;-56
2022/07/29 07:20:27;;;;;;;;;;;23.30;99.90;;;;;;5054779;28;19950;-57
2022/07/29 07:22:53;;;;;;;;;;;23.40;99.80;;;;;;5054798;28;19904;-56
2022/07/29 07:25:19;;;;;;;;;;;23.40;99.70;;;;;;5055050;28;19905;-56
2022/07/29 07:27:44;;;;;;;;;;;23.40;99.50;;;;;;5054851;28;20003;-57
2022/07/29 07:30:10;;;;;;;;;;;23.40;99.50;;;;;;5054865;28;19971;-58
2022/07/29 07:32:36;;;;;;;;;;;23.50;99.60;;;;;;5053153;28;19940;-58
2022/07/29 07:35:03;;;;;;;;;;;23.70;99.20;;;;;;5054402;28;19904;-60
2022/07/29 07:37:29;;;;;;;;;;;23.90;98.70;;;;;;5053342;28;19904;-60
2022/07/29 07:39:54;;;;;;;;;;;24.00;98.20;;;;;;5053855;28;19904;-58
2022/07/29 07:42:19;;;;;;;;;;;24.10;98.10;;;;;;5054579;28;19963;-58
2022/07/29 07:44:45;;;;;;;;;;;24.20;97.70;;;;;;5054760;28;19905;-58
2022/07/29 07:47:14;;;;;;;;;;;24.30;97.50;;;;;;5054381;28;20264;-58
2022/07/29 07:49:40;;;;;;;;;;;24.40;97.20;;;;;;5054457;28;19923;-57
2022/07/29 07:52:05;;;;;;;;;;;24.60;97.00;;;;;;5053764;28;19908;-58
2022/07/29 07:54:31;;;;;;;;;;;24.70;96.10;;;;;;5053121;28;20284;-59
2022/07/29 07:56:57;;;;;;;;;;;24.70;96.00;;;;;;5054207;28;19916;-59
2022/07/29 07:59:22;;;;;;;;;;;24.90;95.70;;;;;;5055665;28;19920;-60
2022/07/29 08:01:48;;;;;;;;;;;24.90;95.40;;;;;;5056804;28;19975;-60
2022/07/29 08:04:13;;;;;;;;;;;25.10;95.40;;;;;;5054039;28;19912;-59
2022/07/29 08:06:39;;;;;;;;;;;25.30;94.80;;;;;;5057214;28;19964;-60
2022/07/29 08:09:04;;;;;;;;;;;25.70;94.20;;;;;;5054410;28;20350;-58
2022/07/29 08:11:30;;;;;;;;;;;26.80;92.10;;;;;;5054011;28;19921;-58
2022/07/29 08:13:56;;;;;;;;;;;27.00;91.00;;;;;;5052560;28;20334;-59
2022/07/29 08:16:21;;;;;;;;;;;26.80;91.00;;;;;;5074024;23;19925;-57
2022/07/29 08:18:47;;;;;;;;;;;26.60;90.80;;;;;;5051007;28;19905;-53
2022/07/29 08:21:16;;;;;;;;;;;26.80;90.90;;;;;;5052298;28;19911;-57
2022/07/29 08:23:48;;;;;;;;;;;27.20;90.20;;;;;;5052349;28;19905;-54
2022/07/29 08:26:14;;;;;;;;;;;27.40;89.70;;;;;;5052786;28;19947;-53
2022/07/29 08:28:44;;;;;;;;;;;27.60;88.70;;;;;;5053479;28;19932;-55
2022/07/29 08:31:09;;;;;;;;;;;28.20;87.00;;;;;;5054062;28;19943;-58
2022/07/29 08:33:35;;;;;;;;;;;29.70;83.20;;;;;;5053920;28;19988;-54
2022/07/29 08:36:00;;;;;;;;;;;31.10;79.30;;;;;;5052693;28;19924;-55
2022/07/29 08:38:27;;;;;;;;;;;32.30;75.60;;;;;;5053627;28;19913;-60
2022/07/29 08:40:53;;;;;;;;;;;33.60;72.50;;;;;;5053929;28;20003;-57
2022/07/29 08:43:19;;;;;;;;;;;34.70;68.80;;;;;;5053547;28;19990;-57
2022/07/29 08:45:45;;;;;;;;;;;35.70;65.90;;;;;;5053570;28;19905;-59
2022/07/29 08:48:21;;;;;;;;;;;36.80;64.00;;;;;;5052791;28;19995;-59
2022/07/29 08:50:47;;;;;;;;;;;36.50;62.20;;;;;;5052562;28;19913;-59
2022/07/29 08:53:14;;;;;;;;;;;36.00;62.20;;;;;;5053028;28;20327;-59
2022/07/29 08:55:42;;;;;;;;;;;36.60;61.10;;;;;;5055712;28;19912;-57
2022/07/29 08:58:07;;;;;;;;;;;36.40;60.60;;;;;;5057569;28;20333;-56
2022/07/29 09:00:35;;;;;;;;;;;35.10;61.70;;;;;;5057480;28;19963;-59
2022/07/29 09:03:01;;;;;;;;;;;33.90;63.40;;;;;;5057548;28;19912;-58
2022/07/29 09:05:27;;;;;;;;;;;33.50;64.10;;;;;;5056178;28;19911;-59
2022/07/29 09:07:53;;;;;;;;;;;33.40;64.30;;;;;;5061191;28;19950;-61
2022/07/29 09:10:19;;;;;;;;;;;33.50;63.90;;;;;;5061390;28;19905;-61
2022/07/29 09:12:44;;;;;;;;;;;34.10;63.10;;;;;;5057535;28;20281;-60
2022/07/29 09:15:10;;;;;;;;;;;34.90;62.00;;;;;;5057613;28;19905;-57
2022/07/29 09:17:42;;;;;;;;;;;35.90;60.80;;;;;;5057042;28;19916;-53
2022/07/29 09:20:09;;;;;;;;;;;36.90;59.20;;;;;;5055474;28;19930;-55
2022/07/29 09:22:35;;;;;;;;;;;37.50;58.70;;;;;;5057260;28;19959;-57
2022/07/29 09:25:00;;;;;;;;;;;37.40;57.80;;;;;;5056988;28;19909;-55
2022/07/29 09:27:26;;;;;;;;;;;37.10;57.70;;;;;;5057481;28;19909;-58
2022/07/29 09:30:13;;;;;;;;;;;36.30;58.20;;;;;;5057159;28;19904;-58
2022/07/29 09:32:58;;;;;;;;;;;36.70;58.00;;;;;;5056801;28;19909;-58
2022/07/29 09:35:24;;;;;;;;;;;37.60;57.40;;;;;;5056696;28;19904;-58
2022/07/29 09:37:50;;;;;;;;;;;37.90;57.30;;;;;;5056730;28;19904;-55
2022/07/29 09:40:17;;;;;;;;;;;38.20;56.70;;;;;;5056560;28;20327;-54
2022/07/29 09:42:43;;;;;;;;;;;36.70;57.40;;;;;;5056860;28;19904;-56
2022/07/29 09:45:09;;;;;;;;;;;35.80;58.50;;;;;;5056425;28;20384;-56
2022/07/29 09:47:41;;;;;;;;;;;35.00;59.80;;;;;;5055985;28;19912;-54
2022/07/29 09:50:07;;;;;;;;;;;34.70;59.90;;;;;;5056291;28;19949;-57
2022/07/29 09:52:43;;;;;;;;;;;33.90;60.90;;;;;;5056206;28;19909;-54
2022/07/29 09:55:12;;;;;;;;;;;32.80;62.30;;;;;;5056616;28;19954;-57
2022/07/29 09:57:38;;;;;;;;;;;32.10;64.10;;;;;;5057032;28;20288;-56
2022/07/29 10:00:06;;;;;;;;;;;31.40;65.00;;;;;;5056241;28;19912;-55
2022/07/29 10:02:33;;;;;;;;;;;31.00;65.90;;;;;;5055980;28;20358;-57
2022/07/29 10:05:00;;;;;;;;;;;30.30;67.20;;;;;;5056767;28;19905;-60
2022/07/29 10:07:26;;;;;;;;;;;30.20;67.70;;;;;;5056053;28;19920;-59
2022/07/29 10:09:55;;;;;;;;;;;30.20;67.30;;;;;;5056913;28;19905;-61
2022/07/29 10:12:21;;;;;;;;;;;30.20;67.30;;;;;;5057461;28;20345;-58
2022/07/29 10:14:47;;;;;;;;;;;29.90;67.80;;;;;;5056990;28;19924;-57
2022/07/29 10:17:12;;;;;;;;;;;29.60;68.60;;;;;;5056223;28;20058;-58
2022/07/29 10:19:38;;;;;;;;;;;29.30;69.50;;;;;;5056986;28;20369;-54
2022/07/29 10:22:05;;;;;;;;;;;29.10;70.00;;;;;;5056201;28;20419;-56
2022/07/29 10:24:31;;;;;;;;;;;29.90;68.70;;;;;;5055975;28;19904;-54
2022/07/29 10:26:58;;;;;;;;;;;32.30;65.20;;;;;;5055833;28;19909;-59
2022/07/29 10:29:24;;;;;;;;;;;34.00;62.00;;;;;;5056789;28;19908;-55
2022/07/29 10:31:59;;;;;;;;;;;35.10;58.90;;;;;;5059126;28;19908;-57
2022/07/29 10:34:44;;;;;;;;;;;35.70;58.10;;;;;;5054339;28;19905;-55
2022/07/29 10:37:24;;;;;;;;;;;35.50;57.20;;;;;;5055577;28;19909;-57
2022/07/29 10:39:49;;;;;;;;;;;35.60;57.40;;;;;;5055536;28;19909;-57
2022/07/29 10:42:24;;;;;;;;;;;36.30;57.30;;;;;;5055615;28;19904;-54
2022/07/29 10:44:50;;;;;;;;;;;37.00;56.50;;;;;;5056148;28;19905;-54
2022/07/29 10:47:22;;;;;;;;;;;36.10;56.30;;;;;;5055510;28;19912;-56
2022/07/29 10:50:14;;;;;;;;;;;35.50;57.40;;;;;;5056241;28;19905;-53
2022/07/29 10:52:56;;;;;;;;;;;36.10;57.60;;;;;;5053481;28;19915;-56
2022/07/29 10:55:38;;;;;;;;;;;37.60;56.00;;;;;;5056266;28;19911;-58
2022/07/29 10:58:23;;;;;;;;;;;38.30;55.00;;;;;;5055949;28;19912;-61
2022/07/29 11:00:50;;;;;;;;;;;38.60;54.10;;;;;;5055667;28;19905;-61
2022/07/29 11:03:34;;;;;;;;;;;37.10;54.70;;;;;;5055219;28;19904;-59
2022/07/29 11:05:59;;;;;;;;;;;35.50;56.90;;;;;;5055244;28;19912;-59
2022/07/29 11:08:25;;;;;;;;;;;35.10;57.20;;;;;;5055010;28;19904;-60
2022/07/29 11:10:51;;;;;;;;;;;35.00;57.60;;;;;;5055133;28;20382;-58
2022/07/29 11:13:35;;;;;;;;;;;35.80;56.30;;;;;;5055467;28;19931;-58
2022/07/29 11:16:01;;;;;;;;;;;35.20;56.70;;;;;;5054861;28;19920;-59
2022/07/29 11:18:26;;;;;;;;;;;34.40;58.00;;;;;;5053045;28;19905;-60
2022/07/29 11:20:54;;;;;;;;;;;33.90;58.30;;;;;;5054721;28;19909;-60
2022/07/29 11:23:20;;;;;;;;;;;33.30;59.00;;;;;;5053104;28;19994;-58
2022/07/29 11:26:06;;;;;;;;;;;33.10;59.10;;;;;;5054226;28;19908;-59
2022/07/29 11:28:32;;;;;;;;;;;32.70;59.80;;;;;;5054702;28;20234;-60
2022/07/29 11:30:58;;;;;;;;;;;32.10;60.80;;;;;;5053693;28;20011;-61
2022/07/29 11:33:30;;;;;;;;;;;31.80;61.20;;;;;;5053687;28;19912;-61
2022/07/29 11:36:09;;;;;;;;;;;31.60;61.20;;;;;;5052178;28;19912;-61
2022/07/29 11:38:34;;;;;;;;;;;31.70;61.50;;;;;;5052879;28;19913;-62
2022/07/29 11:41:18;;;;;;;;;;;31.70;61.60;;;;;;5053490;28;20281;-58
2022/07/29 11:43:47;;;;;;;;;;;31.70;61.60;;;;;;5053627;28;19911;-59
2022/07/29 11:46:13;;;;;;;;;;;31.60;61.10;;;;;;5053901;28;19911;-59
2022/07/29 11:48:41;;;;;;;;;;;31.50;61.20;;;;;;5053814;28;20412;-58
2022/07/29 11:51:09;;;;;;;;;;;31.20;62.00;;;;;;5053005;28;20291;-54
2022/07/29 11:53:35;;;;;;;;;;;30.60;62.60;;;;;;5051928;28;19905;-59
2022/07/29 11:56:01;;;;;;;;;;;30.40;63.30;;;;;;5053381;28;19904;-57
2022/07/29 11:58:27;;;;;;;;;;;30.50;63.20;;;;;;5053176;28;19954;-59
2022/07/29 12:00:52;;;;;;;;;;;30.50;62.70;;;;;;5053766;28;19953;-61
2022/07/29 12:03:25;;;;;;;;;;;30.60;62.70;;;;;;5053225;28;19904;-58
2022/07/29 12:05:51;;;;;;;;;;;30.50;62.90;;;;;;5053272;28;20364;-57
2022/07/29 12:08:21;;;;;;;;;;;30.30;62.60;;;;;;5052776;28;19909;-55
2022/07/29 12:10:48;;;;;;;;;;;30.20;62.80;;;;;;5052956;28;19920;-55
2022/07/29 12:13:14;;;;;;;;;;;29.90;63.00;;;;;;5052988;28;19912;-59
2022/07/29 12:15:40;;;;;;;;;;;29.80;63.00;;;;;;5016432;28;1049939;-53
2022/07/29 12:18:09;;;;;;;;;;;29.70;63.50;;;;;;5053701;28;19900;-57
2022/07/29 12:20:35;;;;;;;;;;;29.70;63.90;;;;;;5053889;28;20414;-57
2022/07/29 12:23:04;;;;;;;;;;;29.80;63.60;;;;;;5054345;28;19905;-57
2022/07/29 12:25:32;;;;;;;;;;;29.90;63.40;;;;;;5053475;28;19909;-56
2022/07/29 12:28:03;;;;;;;;;;;30.10;62.60;;;;;;5053790;28;19905;-57
2022/07/29 12:30:38;;;;;;;;;;;30.10;62.50;;;;;;5051796;28;19905;-57
2022/07/29 12:33:10;;;;;;;;;;;30.30;62.30;;;;;;5054113;28;19904;-56
2022/07/29 12:35:35;;;;;;;;;;;30.40;61.60;;;;;;5053542;28;19967;-57
2022/07/29 12:38:02;;;;;;;;;;;30.60;61.50;;;;;;5053532;28;19973;-58
2022/07/29 12:40:27;;;;;;;;;;;30.80;61.20;;;;;;5053531;28;19944;-54
2022/07/29 12:43:05;;;;;;;;;;;30.80;61.30;;;;;;5054200;28;19912;-58
2022/07/29 12:45:31;;;;;;;;;;;30.70;61.70;;;;;;5054123;28;19909;-60
2022/07/29 12:47:56;;;;;;;;;;;30.80;61.20;;;;;;5053697;28;19916;-57
2022/07/29 12:50:22;;;;;;;;;;;30.90;60.80;;;;;;5054388;28;19905;-55
2022/07/29 12:52:47;;;;;;;;;;;30.90;60.40;;;;;;5054122;28;20361;-58
2022/07/29 12:55:13;;;;;;;;;;;30.90;60.30;;;;;;5054650;28;19904;-59
2022/07/29 12:57:50;;;;;;;;;;;30.70;60.20;;;;;;5054360;28;20369;-59
2022/07/29 13:00:16;;;;;;;;;;;30.40;60.40;;;;;;5054207;28;19905;-58
2022/07/29 13:02:43;;;;;;;;;;;30.30;61.10;;;;;;5053883;28;19951;-57
2022/07/29 13:05:09;;;;;;;;;;;30.20;61.40;;;;;;5058633;28;19908;-59
2022/07/29 13:07:36;;;;;;;;;;;30.30;61.60;;;;;;5054865;28;19905;-58
2022/07/29 13:10:10;;;;;;;;;;;30.30;61.70;;;;;;5053413;28;20007;-54
2022/07/29 13:12:36;;;;;;;;;;;30.40;61.90;;;;;;5053758;28;19915;-58
2022/07/29 13:15:11;;;;;;;;;;;30.40;61.70;;;;;;5053635;28;19905;-55
2022/07/29 13:17:42;;;;;;;;;;;30.50;61.70;;;;;;5053645;28;19916;-56
2022/07/29 13:20:12;;;;;;;;;;;30.40;61.90;;;;;;5053560;28;19962;-59
2022/07/29 13:22:37;;;;;;;;;;;30.40;62.40;;;;;;5053297;28;19905;-58
2022/07/29 13:25:03;;;;;;;;;;;30.30;61.50;;;;;;5053168;28;19920;-58
2022/07/29 13:27:31;;;;;;;;;;;30.20;62.50;;;;;;5052906;28;19904;-57
2022/07/29 13:29:58;;;;;;;;;;;30.10;61.90;;;;;;5053992;28;19909;-55
2022/07/29 13:32:25;;;;;;;;;;;30.10;62.10;;;;;;5053561;28;19908;-59
2022/07/29 13:34:51;;;;;;;;;;;30.20;61.30;;;;;;5053935;28;20294;-58
2022/07/29 13:37:19;;;;;;;;;;;30.00;60.90;;;;;;5053229;28;19971;-58
2022/07/29 13:39:45;;;;;;;;;;;30.00;61.10;;;;;;5053367;28;19904;-56
2022/07/29 13:42:12;;;;;;;;;;;30.00;61.00;;;;;;5056476;28;20281;-59
2022/07/29 13:44:38;;;;;;;;;;;30.00;60.60;;;;;;5056776;28;19936;-57
2022/07/29 13:47:04;;;;;;;;;;;29.80;60.80;;;;;;5056336;28;19912;-59
2022/07/29 13:49:29;;;;;;;;;;;29.70;60.70;;;;;;5056473;28;19995;-58
2022/07/29 13:51:55;;;;;;;;;;;29.70;60.60;;;;;;5056794;28;19916;-56
2022/07/29 13:54:20;;;;;;;;;;;29.60;61.00;;;;;;5056577;28;19905;-57
2022/07/29 13:56:46;;;;;;;;;;;29.70;61.00;;;;;;5056999;28;19908;-56
2022/07/29 13:59:11;;;;;;;;;;;29.70;60.30;;;;;;5056479;28;19904;-59
2022/07/29 14:01:38;;;;;;;;;;;29.80;60.50;;;;;;5056111;28;19995;-58
2022/07/29 14:04:04;;;;;;;;;;;29.60;60.80;;;;;;5056385;28;19987;-57
2022/07/29 14:06:29;;;;;;;;;;;29.60;60.60;;;;;;5056808;28;20373;-59
2022/07/29 14:08:55;;;;;;;;;;;29.70;60.50;;;;;;5056421;28;20004;-59
2022/07/29 14:11:20;;;;;;;;;;;29.90;60.40;;;;;;5056318;28;20345;-57
2022/07/29 14:13:46;;;;;;;;;;;29.90;60.30;;;;;;5055763;28;19958;-59
2022/07/29 14:16:11;;;;;;;;;;;29.90;60.20;;;;;;5055159;28;19912;-61
2022/07/29 14:18:37;;;;;;;;;;;29.90;60.20;;;;;;5055838;28;20420;-59